Terminal Aerodrome Forecast
Issued by NWS Jackson, MS

Home | Current Version | Previous Version | Text Only | Print | Product List | Glossary On
Versions: 1 2 3 4 5 6 7 8 9 10 11 12 13 14 15 16 17
000
FTUS44 KMEG 241900 AAB
TAFTUP
TAF AMD
KTUP 241945Z 2420/2518 02010KT P6SM FEW035
     FM250100 VRB03KT P6SM SKC
      TEMPO 2510/2513 3SM BCFG=

USA.gov is the U.S. government's official web portal to all federal, state and local government web resources and services.